Time;durP1;ratioP1;P1;durP2;ratioP2;P2;SDS_P1;SDS_P2;PMS_P1;PMS_P2;Temp;Humidity;BMP_temperature;BMP_pressure;BME280_temperature;BME280_humidity;BME280_pressure;Samples;Min_cycle;Max_cycle;Signal;HPM_P1;HPM_P2
2023/11/26 00:00:29;;;;;;;1.90;0.90;;;1.20;99.90;;;;;;2095215;28;20643;-69
2023/11/26 00:01:30;;;;;;;0.70;0.70;;;1.20;99.90;;;;;;2095170;28;20261;-70
2023/11/26 00:02:31;;;;;;;1.70;1.00;;;1.20;99.90;;;;;;2072522;28;20232;-68
2023/11/26 00:03:32;;;;;;;1.10;1.00;;;1.30;99.90;;;;;;2073364;28;20240;-68
2023/11/26 00:04:33;;;;;;;0.67;0.57;;;1.30;99.90;;;;;;2082019;28;20225;-68
2023/11/26 00:05:34;;;;;;;0.90;0.70;;;1.30;99.90;;;;;;2078716;28;20320;-68
2023/11/26 00:06:35;;;;;;;1.10;1.00;;;1.30;99.90;;;;;;2076051;28;20816;-68
2023/11/26 00:07:36;;;;;;;0.80;0.70;;;1.20;99.90;;;;;;2082011;28;20639;-68
2023/11/26 00:08:36;;;;;;;0.93;0.70;;;1.10;99.90;;;;;;2075798;28;20322;-67
2023/11/26 00:09:37;;;;;;;1.80;0.80;;;1.00;99.90;;;;;;2068803;28;20236;-68
2023/11/26 00:10:38;;;;;;;0.73;0.70;;;1.00;99.90;;;;;;2083837;28;20252;-69
2023/11/26 00:11:39;;;;;;;0.70;0.70;;;1.10;99.90;;;;;;2084608;28;20327;-69
2023/11/26 00:12:40;;;;;;;1.10;0.70;;;1.10;99.90;;;;;;2093897;28;20262;-69
2023/11/26 00:13:40;;;;;;;0.60;0.60;;;1.10;99.90;;;;;;2098442;28;20649;-69
2023/11/26 00:14:41;;;;;;;0.70;0.70;;;1.20;99.90;;;;;;2097293;28;20228;-69
2023/11/26 00:15:42;;;;;;;0.60;0.60;;;1.20;99.90;;;;;;2088004;28;20932;-69
2023/11/26 00:16:44;;;;;;;0.70;0.60;;;1.20;99.90;;;;;;2070962;28;20221;-69
2023/11/26 00:17:45;;;;;;;0.88;0.50;;;1.20;99.90;;;;;;2070931;28;20213;-68
2023/11/26 00:18:46;;;;;;;0.90;0.80;;;1.10;99.90;;;;;;2084098;28;20215;-68
2023/11/26 00:19:47;;;;;;;0.77;0.63;;;1.10;99.90;;;;;;2079654;28;20227;-70
2023/11/26 00:20:47;;;;;;;0.50;0.47;;;1.10;99.90;;;;;;2086207;28;20717;-68
2023/11/26 00:21:49;;;;;;;0.60;0.60;;;1.10;99.90;;;;;;2094638;28;20219;-69
2023/11/26 00:22:49;;;;;;;0.98;0.60;;;1.10;99.90;;;;;;2078144;28;20670;-69
2023/11/26 00:23:50;;;;;;;0.50;0.50;;;1.10;99.90;;;;;;2073715;28;20226;-70
2023/11/26 00:24:51;;;;;;;0.47;0.47;;;1.00;99.90;;;;;;2084231;28;20309;-70
2023/11/26 00:25:51;;;;;;;0.60;0.60;;;1.00;99.90;;;;;;2080350;28;20188;-70
2023/11/26 00:26:52;;;;;;;0.60;0.60;;;0.90;99.90;;;;;;2088046;28;20179;-70
2023/11/26 00:27:53;;;;;;;0.60;0.60;;;0.90;99.90;;;;;;2080126;28;20178;-70
2023/11/26 00:28:54;;;;;;;0.60;0.60;;;0.90;99.90;;;;;;2080096;28;20196;-70
2023/11/26 00:29:55;;;;;;;0.93;0.80;;;0.90;99.90;;;;;;2093111;28;20230;-69
2023/11/26 00:30:56;;;;;;;0.75;0.60;;;1.00;99.90;;;;;;2088047;28;20542;-69
2023/11/26 00:31:57;;;;;;;0.70;0.60;;;0.90;99.90;;;;;;2078930;28;20275;-69
2023/11/26 00:32:57;;;;;;;0.68;0.68;;;0.90;99.90;;;;;;2086814;28;20180;-69
2023/11/26 00:33:58;;;;;;;0.93;0.60;;;0.90;99.90;;;;;;2082449;28;20722;-69
2023/11/26 00:34:59;;;;;;;1.57;0.70;;;0.90;99.90;;;;;;2079845;28;20220;-69
2023/11/26 00:36:00;;;;;;;1.80;0.50;;;0.90;99.90;;;;;;2086964;28;20184;-69
2023/11/26 00:37:01;;;;;;;1.73;0.73;;;0.90;99.90;;;;;;2088682;28;20751;-69
2023/11/26 00:38:02;;;;;;;1.83;0.90;;;1.00;99.90;;;;;;2085844;28;21154;-69
2023/11/26 00:39:02;;;;;;;1.20;0.90;;;1.00;99.90;;;;;;2078840;28;20204;-69
2023/11/26 00:40:05;;;;;;;1.33;0.90;;;1.00;99.90;;;;;;2094304;28;20178;-69
2023/11/26 00:41:06;;;;;;;0.75;0.75;;;1.00;99.90;;;;;;2093160;28;20323;-69
2023/11/26 00:42:07;;;;;;;1.07;0.73;;;1.00;99.90;;;;;;2090845;28;20254;-69
2023/11/26 00:43:09;;;;;;;1.52;0.80;;;1.00;99.90;;;;;;2089506;28;20741;-69
2023/11/26 00:44:09;;;;;;;1.00;0.90;;;1.00;99.90;;;;;;2085660;28;20184;-69
2023/11/26 00:45:10;;;;;;;1.10;0.90;;;1.00;99.90;;;;;;2081700;28;20895;-70
2023/11/26 00:46:11;;;;;;;0.97;0.80;;;1.00;99.90;;;;;;2083577;28;20322;-69
2023/11/26 00:47:12;;;;;;;1.23;0.90;;;1.00;99.90;;;;;;2074536;28;20316;-69
2023/11/26 00:48:12;;;;;;;1.60;1.07;;;1.00;99.90;;;;;;2092474;28;20302;-69
2023/11/26 00:49:13;;;;;;;1.90;0.80;;;1.00;99.90;;;;;;2088412;28;20971;-69
2023/11/26 00:50:17;;;;;;;0.80;0.80;;;0.90;99.90;;;;;;2086339;28;20227;-70
2023/11/26 00:51:22;;;;;;;3.75;1.30;;;0.90;99.90;;;;;;2088362;28;20228;-69
2023/11/26 00:52:22;;;;;;;1.60;1.13;;;0.90;99.90;;;;;;2085245;28;20323;-69
2023/11/26 00:53:24;;;;;;;1.30;1.20;;;1.00;99.90;;;;;;2079638;28;20348;-69
2023/11/26 00:54:24;;;;;;;3.35;1.77;;;1.00;99.90;;;;;;2070986;28;20227;-69
2023/11/26 00:55:25;;;;;;;3.43;1.40;;;0.90;99.90;;;;;;2070913;28;20595;-69
2023/11/26 00:56:26;;;;;;;3.00;1.70;;;1.00;99.90;;;;;;2079630;28;20265;-69
2023/11/26 00:57:27;;;;;;;2.70;1.30;;;0.90;99.90;;;;;;2065114;28;20756;-69
2023/11/26 00:58:29;;;;;;;2.30;1.30;;;0.90;99.90;;;;;;2071322;28;20228;-69
2023/11/26 00:59:29;;;;;;;2.85;1.10;;;0.90;99.90;;;;;;2087328;28;20232;-69
2023/11/26 01:00:30;;;;;;;2.50;1.63;;;0.90;99.90;;;;;;2087665;28;20231;-69
2023/11/26 01:01:32;;;;;;;2.47;1.30;;;0.90;99.90;;;;;;2090496;28;20263;-69
2023/11/26 01:02:34;;;;;;;3.80;1.85;;;1.00;99.90;;;;;;2089708;28;20227;-69
2023/11/26 01:03:35;;;;;;;4.65;1.58;;;1.00;99.90;;;;;;2089657;28;20613;-68
2023/11/26 01:04:36;;;;;;;3.73;1.80;;;1.00;99.90;;;;;;2092510;28;20243;-69
2023/11/26 01:05:36;;;;;;;5.32;1.67;;;1.10;99.90;;;;;;2090326;28;20269;-69
2023/11/26 01:06:38;;;;;;;1.63;1.40;;;1.10;99.90;;;;;;2092368;28;20235;-69
2023/11/26 01:07:38;;;;;;;1.60;1.42;;;1.00;99.90;;;;;;2090071;28;20282;-69
2023/11/26 01:08:39;;;;;;;3.20;1.50;;;1.00;99.90;;;;;;2092089;28;20314;-69
2023/11/26 01:09:40;;;;;;;1.50;1.37;;;0.90;99.90;;;;;;2089745;28;20708;-69
2023/11/26 01:10:40;;;;;;;1.70;1.47;;;0.90;99.90;;;;;;2089644;28;20253;-70
2023/11/26 01:11:42;;;;;;;2.20;1.50;;;0.90;99.90;;;;;;2098122;28;20225;-69
2023/11/26 01:12:42;;;;;;;2.25;1.30;;;0.90;99.90;;;;;;2081471;28;20228;-69
2023/11/26 01:13:44;;;;;;;3.03;1.50;;;0.90;99.90;;;;;;2076124;28;20228;-69
2023/11/26 01:14:44;;;;;;;2.33;1.50;;;1.00;99.90;;;;;;2092757;28;20231;-69
2023/11/26 01:15:45;;;;;;;2.20;1.10;;;0.90;99.90;;;;;;2093127;28;20727;-69
2023/11/26 01:16:46;;;;;;;2.10;1.40;;;0.90;99.90;;;;;;2089808;28;20226;-69
2023/11/26 01:17:47;;;;;;;1.47;1.23;;;0.90;99.90;;;;;;2100587;28;20220;-69
2023/11/26 01:18:48;;;;;;;1.80;1.33;;;0.90;99.90;;;;;;2101056;28;20293;-69
2023/11/26 01:19:48;;;;;;;1.80;1.10;;;0.90;99.90;;;;;;2093373;28;20304;-69
2023/11/26 01:20:49;;;;;;;2.23;1.13;;;0.90;99.90;;;;;;2085318;28;20220;-69
2023/11/26 01:21:50;;;;;;;3.90;1.40;;;0.90;99.90;;;;;;2087417;28;20226;-69
2023/11/26 01:22:51;;;;;;;2.23;1.50;;;1.00;99.90;;;;;;2085679;28;20302;-70
2023/11/26 01:23:53;;;;;;;2.38;1.25;;;1.10;99.90;;;;;;2081279;28;20204;-70
2023/11/26 01:24:53;;;;;;;1.52;1.20;;;1.00;99.90;;;;;;2087498;28;20741;-69
2023/11/26 01:25:54;;;;;;;1.13;1.00;;;1.10;99.90;;;;;;2094849;28;20172;-69
2023/11/26 01:26:56;;;;;;;1.40;1.10;;;1.10;99.90;;;;;;2093699;28;20641;-70
2023/11/26 01:27:57;;;;;;;1.73;1.02;;;1.20;99.90;;;;;;2082212;28;20204;-69
2023/11/26 01:28:58;;;;;;;2.17;1.20;;;1.20;99.90;;;;;;2083363;28;20215;-69
2023/11/26 01:29:59;;;;;;;1.83;1.38;;;1.20;99.90;;;;;;2078683;28;20185;-69
2023/11/26 01:30:59;;;;;;;1.63;1.13;;;1.20;99.90;;;;;;2074409;28;20181;-69
2023/11/26 01:32:00;;;;;;;3.27;1.53;;;1.10;99.90;;;;;;2081172;28;20178;-69
2023/11/26 01:33:01;;;;;;;1.33;1.13;;;1.10;99.90;;;;;;2084400;28;20693;-69
2023/11/26 01:34:02;;;;;;;1.00;0.90;;;1.10;99.90;;;;;;2086550;28;20216;-69
2023/11/26 01:35:03;;;;;;;1.10;1.00;;;1.10;99.90;;;;;;2084923;28;20177;-69
2023/11/26 01:36:09;;;;;;;1.45;0.90;;;1.20;99.90;;;;;;2087646;28;20187;-69
2023/11/26 01:37:10;;;;;;;3.20;1.20;;;1.10;99.90;;;;;;2080957;28;20630;-69
2023/11/26 01:38:11;;;;;;;1.03;0.90;;;1.10;99.90;;;;;;2094790;28;20241;-70
2023/11/26 01:39:12;;;;;;;1.33;1.07;;;1.10;99.90;;;;;;2090034;28;20852;-69
2023/11/26 01:40:13;;;;;;;2.55;1.00;;;1.10;99.90;;;;;;2072463;28;20671;-70
2023/11/26 01:41:13;;;;;;;0.80;0.80;;;1.10;99.90;;;;;;2066493;28;20230;-68
2023/11/26 01:42:14;;;;;;;1.20;1.10;;;1.20;99.90;;;;;;2075866;28;20279;-68
2023/11/26 01:43:15;;;;;;;0.60;0.60;;;1.10;99.90;;;;;;2079532;28;20308;-69
2023/11/26 01:44:16;;;;;;;0.97;0.87;;;1.10;99.90;;;;;;2077724;28;20230;-69
2023/11/26 01:45:17;;;;;;;0.80;0.80;;;1.10;99.90;;;;;;2083300;28;20719;-68
2023/11/26 01:46:19;;;;;;;0.60;0.60;;;1.10;99.90;;;;;;2088417;28;20229;-68
2023/11/26 01:47:20;;;;;;;0.98;0.70;;;1.10;99.90;;;;;;2081033;28;20236;-68
2023/11/26 01:48:21;;;;;;;1.00;0.60;;;1.00;99.90;;;;;;2070947;28;20230;-68
2023/11/26 01:49:22;;;;;;;0.47;0.47;;;1.00;99.90;;;;;;2083022;28;20240;-68
2023/11/26 01:50:26;;;;;;;0.50;0.50;;;0.90;99.90;;;;;;2085516;28;20234;-68
2023/11/26 01:51:31;;;;;;;1.85;1.00;;;0.90;99.90;;;;;;2087660;28;20609;-69
2023/11/26 01:52:32;;;;;;;0.55;0.55;;;0.90;99.90;;;;;;2089793;28;20238;-68
2023/11/26 01:53:33;;;;;;;0.93;0.85;;;0.80;99.90;;;;;;2093906;28;20226;-69
2023/11/26 01:54:42;;;;;;;1.83;0.93;;;0.80;99.90;;;;;;2092809;28;20305;-69
2023/11/26 01:55:43;;;;;;;1.33;1.13;;;0.80;99.90;;;;;;2089115;28;21057;-69
2023/11/26 01:56:43;;;;;;;1.40;0.83;;;0.70;99.90;;;;;;2085125;28;20321;-69
2023/11/26 01:57:45;;;;;;;1.10;0.90;;;0.80;99.90;;;;;;2084132;28;20228;-69
2023/11/26 01:58:46;;;;;;;1.48;1.00;;;0.70;99.90;;;;;;2079040;28;20234;-69
2023/11/26 01:59:46;;;;;;;1.47;0.80;;;0.80;99.90;;;;;;2079449;28;20254;-68
2023/11/26 02:00:49;;;;;;;1.17;1.00;;;0.80;99.90;;;;;;2079212;28;20219;-70
2023/11/26 02:01:50;;;;;;;1.13;1.02;;;0.80;99.90;;;;;;2081524;28;20222;-69
2023/11/26 02:02:51;;;;;;;1.00;0.80;;;0.90;99.90;;;;;;2089448;28;20194;-70
2023/11/26 02:03:51;;;;;;;1.33;1.00;;;0.90;99.90;;;;;;2092694;28;20194;-70
2023/11/26 02:04:52;;;;;;;2.17;1.23;;;0.90;99.90;;;;;;2100176;28;20283;-70
2023/11/26 02:05:53;;;;;;;1.90;1.60;;;0.90;99.90;;;;;;2096676;28;20228;-69
2023/11/26 02:06:54;;;;;;;2.57;1.30;;;0.90;99.90;;;;;;2096282;28;20193;-70
2023/11/26 02:07:55;;;;;;;3.47;1.20;;;0.90;99.90;;;;;;2081609;28;20214;-69
2023/11/26 02:08:57;;;;;;;2.90;1.70;;;0.90;99.90;;;;;;2085651;28;20183;-69
2023/11/26 02:09:57;;;;;;;3.53;1.38;;;0.90;99.90;;;;;;2077455;28;20181;-69
2023/11/26 02:11:02;;;;;;;1.67;1.23;;;0.90;99.90;;;;;;2076577;28;20202;-69
2023/11/26 02:12:08;;;;;;;1.10;1.00;;;0.90;99.90;;;;;;2094854;28;20182;-69
2023/11/26 02:13:09;;;;;;;1.85;1.13;;;1.00;99.90;;;;;;2088560;28;20647;-69
2023/11/26 02:14:10;;;;;;;2.00;1.40;;;1.00;99.90;;;;;;2092718;28;20512;-69
2023/11/26 02:15:13;;;;;;;1.20;1.10;;;1.00;99.90;;;;;;2094612;28;20241;-69
2023/11/26 02:16:14;;;;;;;1.88;1.15;;;1.00;99.90;;;;;;2091146;28;20229;-69
2023/11/26 02:17:15;;;;;;;2.97;0.95;;;1.00;99.90;;;;;;2087996;28;20305;-69
2023/11/26 02:18:19;;;;;;;1.08;0.90;;;1.00;99.90;;;;;;2087545;28;20244;-69
2023/11/26 02:19:35;;;;;;;2.10;1.00;;;1.00;99.90;;;;;;2089146;28;20231;-69
2023/11/26 02:20:36;;;;;;;1.45;0.90;;;1.00;99.90;;;;;;2094902;28;20286;-69
2023/11/26 02:21:37;;;;;;;2.07;1.07;;;1.10;99.90;;;;;;2076184;28;20319;-69
2023/11/26 02:22:37;;;;;;;2.50;1.27;;;1.10;99.90;;;;;;2079240;28;20224;-69
2023/11/26 02:23:39;;;;;;;1.20;0.90;;;1.10;99.90;;;;;;2077377;28;20617;-69
2023/11/26 02:24:44;;;;;;;1.95;1.15;;;1.00;99.90;;;;;;2084749;28;20756;-69
2023/11/26 02:25:45;;;;;;;1.98;0.90;;;1.00;99.90;;;;;;2077914;28;20299;-69
2023/11/26 02:26:46;;;;;;;1.03;0.90;;;1.00;99.90;;;;;;2081452;28;20227;-69
2023/11/26 02:27:47;;;;;;;0.80;0.70;;;1.00;99.90;;;;;;2084072;28;20232;-69
2023/11/26 02:28:47;;;;;;;0.70;0.70;;;1.00;99.90;;;;;;2084845;28;20655;-69
2023/11/26 02:29:48;;;;;;;1.63;1.33;;;0.90;99.90;;;;;;2089442;28;20221;-69
2023/11/26 02:30:49;;;;;;;0.70;0.70;;;1.00;99.90;;;;;;2093195;28;20223;-69
2023/11/26 02:31:50;;;;;;;1.57;0.97;;;1.00;99.90;;;;;;2094009;28;20726;-69
2023/11/26 02:32:52;;;;;;;0.90;0.90;;;0.90;99.90;;;;;;2091490;28;20269;-70
2023/11/26 02:33:52;;;;;;;0.50;0.50;;;0.90;99.90;;;;;;2090744;28;20216;-69
2023/11/26 02:34:53;;;;;;;0.90;0.90;;;0.90;99.90;;;;;;2088211;28;20186;-69
2023/11/26 02:35:54;;;;;;;1.00;0.90;;;0.90;99.90;;;;;;2081132;28;20190;-70
2023/11/26 02:36:54;;;;;;;1.07;1.03;;;0.90;99.90;;;;;;2080815;28;20627;-70
2023/11/26 02:37:56;;;;;;;1.43;0.90;;;1.00;99.90;;;;;;2085965;28;20192;-69
2023/11/26 02:38:57;;;;;;;2.30;0.90;;;1.00;99.90;;;;;;2086959;28;20175;-70
2023/11/26 02:39:57;;;;;;;1.17;0.70;;;0.90;99.90;;;;;;2089895;28;20673;-69
2023/11/26 02:40:58;;;;;;;0.70;0.70;;;0.90;99.90;;;;;;2086753;28;20176;-69
2023/11/26 02:41:59;;;;;;;0.97;0.87;;;0.90;99.90;;;;;;2086655;28;20262;-69
2023/11/26 02:42:59;;;;;;;1.50;0.77;;;0.90;99.90;;;;;;2088771;28;20218;-69
2023/11/26 02:44:00;;;;;;;0.80;0.80;;;0.80;99.90;;;;;;2093032;28;20191;-69
2023/11/26 02:45:01;;;;;;;0.77;0.77;;;0.80;99.90;;;;;;2080467;28;20222;-69
2023/11/26 02:46:02;;;;;;;0.73;0.73;;;0.80;99.90;;;;;;2085430;28;20716;-69
2023/11/26 02:47:03;;;;;;;0.90;0.90;;;0.80;99.90;;;;;;2092724;28;20254;-69
2023/11/26 02:48:04;;;;;;;0.82;0.80;;;0.80;99.90;;;;;;2089675;28;20604;-69
2023/11/26 02:49:05;;;;;;;1.20;0.97;;;0.80;99.90;;;;;;2078111;28;20211;-69
2023/11/26 02:50:07;;;;;;;1.70;0.83;;;0.80;99.90;;;;;;2086917;28;20217;-69
2023/11/26 02:51:08;;;;;;;1.58;1.15;;;0.90;99.90;;;;;;2091092;28;20277;-69
2023/11/26 02:52:09;;;;;;;2.40;1.17;;;0.90;99.90;;;;;;2078576;28;20179;-69
2023/11/26 02:53:10;;;;;;;1.80;1.33;;;0.80;99.90;;;;;;2073023;28;20249;-69
2023/11/26 02:54:10;;;;;;;1.70;1.40;;;0.80;99.90;;;;;;2087017;28;20307;-69
2023/11/26 02:55:11;;;;;;;1.40;1.20;;;0.80;99.90;;;;;;2093952;28;20242;-70
2023/11/26 02:56:13;;;;;;;1.53;1.30;;;0.80;99.90;;;;;;2085835;28;20307;-69
2023/11/26 02:57:14;;;;;;;2.92;1.40;;;0.80;99.90;;;;;;2086687;28;20732;-70
2023/11/26 02:58:16;;;;;;;3.05;1.10;;;0.80;99.90;;;;;;2086262;28;20245;-69
2023/11/26 02:59:17;;;;;;;2.72;1.70;;;0.80;99.90;;;;;;2075643;28;20286;-69
2023/11/26 03:00:20;;;;;;;2.75;1.02;;;0.70;99.90;;;;;;2095133;28;20234;-69
2023/11/26 03:01:28;;;;;;;2.33;1.60;;;0.70;99.90;;;;;;2094545;28;20226;-69
2023/11/26 03:02:30;;;;;;;1.70;1.30;;;0.70;99.90;;;;;;2084195;28;20233;-69
2023/11/26 03:03:31;;;;;;;2.13;1.30;;;0.80;99.90;;;;;;2083202;28;20233;-69
2023/11/26 03:04:32;;;;;;;4.10;1.63;;;0.70;99.90;;;;;;2078808;28;20605;-70
2023/11/26 03:05:33;;;;;;;3.80;2.03;;;0.70;99.90;;;;;;2085749;28;20295;-69
2023/11/26 03:06:35;;;;;;;5.17;1.50;;;0.70;99.90;;;;;;2081118;28;20727;-70
2023/11/26 03:07:35;;;;;;;4.03;1.88;;;0.70;99.90;;;;;;2093807;28;20235;-69
2023/11/26 03:08:38;;;;;;;2.27;1.67;;;0.70;99.90;;;;;;2093375;28;20233;-69
2023/11/26 03:12:56;;;;;;;2.42;1.50;;;0.80;99.90;;;;;;2086808;28;20310;-69
2023/11/26 03:13:38;;;;;;;5.57;1.48;;;0.80;99.90;;;;;;2094409;28;20230;-69
2023/11/26 03:14:38;;;;;;;1.87;1.50;;;0.80;99.90;;;;;;2089908;28;20223;-69
2023/11/26 03:15:41;;;;;;;3.93;2.03;;;0.80;99.90;;;;;;2093612;28;20238;-69
2023/11/26 03:16:45;;;;;;;3.40;1.95;;;0.80;99.90;;;;;;2090017;28;20227;-70
2023/11/26 03:17:46;;;;;;;2.95;1.63;;;0.80;99.90;;;;;;2077370;28;20236;-69
2023/11/26 03:18:49;;;;;;;2.60;1.70;;;0.70;99.90;;;;;;2067835;28;20230;-69
2023/11/26 03:19:49;;;;;;;4.38;1.65;;;0.80;99.90;;;;;;2079881;28;20240;-69
2023/11/26 03:20:52;;;;;;;2.23;1.90;;;0.80;99.90;;;;;;2081641;28;20284;-69
2023/11/26 03:21:54;;;;;;;3.38;1.65;;;0.90;99.90;;;;;;2089501;28;20688;-69
2023/11/26 03:22:55;;;;;;;2.63;1.80;;;0.90;99.90;;;;;;2095914;28;20201;-69
2023/11/26 03:23:56;;;;;;;4.70;2.33;;;0.90;99.90;;;;;;2089597;28;20310;-70
2023/11/26 03:24:56;;;;;;;1.93;1.50;;;0.80;99.90;;;;;;2089885;28;20280;-69
2023/11/26 03:25:58;;;;;;;3.20;2.40;;;0.80;99.90;;;;;;2085378;28;20276;-70
2023/11/26 03:26:59;;;;;;;2.00;1.60;;;0.80;99.90;;;;;;2088774;28;20260;-69
2023/11/26 03:28:00;;;;;;;1.60;1.23;;;0.80;99.90;;;;;;2083516;28;20180;-72
2023/11/26 03:29:01;;;;;;;6.38;2.40;;;0.80;99.90;;;;;;2086445;28;20208;-69
2023/11/26 03:30:02;;;;;;;2.47;1.30;;;0.80;99.90;;;;;;2083049;28;20589;-69
2023/11/26 03:31:03;;;;;;;1.70;1.23;;;0.80;99.90;;;;;;2089054;28;20259;-70
2023/11/26 03:32:04;;;;;;;2.78;1.48;;;0.80;99.90;;;;;;2076851;28;20439;-69
2023/11/26 03:33:05;;;;;;;2.78;1.42;;;0.80;99.90;;;;;;2076200;28;20789;-69
2023/11/26 03:34:08;;;;;;;2.83;1.60;;;0.80;99.90;;;;;;2089464;28;20279;-69
2023/11/26 03:35:09;;;;;;;3.25;1.60;;;0.80;99.90;;;;;;2092234;28;20185;-71
2023/11/26 03:36:10;;;;;;;1.63;1.30;;;0.80;99.90;;;;;;2083607;28;20187;-69
2023/11/26 03:37:11;;;;;;;1.42;1.23;;;0.80;99.90;;;;;;2084447;28;20242;-69
2023/11/26 03:38:13;;;;;;;3.40;1.20;;;0.80;99.90;;;;;;2087983;28;20254;-70
2023/11/26 03:39:14;;;;;;;1.77;1.20;;;0.80;99.90;;;;;;2089439;28;20236;-69
2023/11/26 03:40:15;;;;;;;1.73;1.30;;;0.80;99.90;;;;;;2080920;28;20845;-69
2023/11/26 03:41:15;;;;;;;2.15;1.50;;;0.80;99.90;;;;;;2083322;28;20300;-69
2023/11/26 03:42:16;;;;;;;1.93;1.13;;;0.80;99.90;;;;;;2077780;28;20281;-69
2023/11/26 03:43:18;;;;;;;2.03;1.40;;;0.80;99.90;;;;;;2082777;28;20228;-70
2023/11/26 03:44:19;;;;;;;1.45;1.10;;;0.80;99.90;;;;;;2080064;28;20242;-69
2023/11/26 03:45:20;;;;;;;1.27;1.17;;;0.90;99.90;;;;;;2080130;28;20238;-69
2023/11/26 03:46:21;;;;;;;1.73;1.13;;;0.90;99.90;;;;;;2084010;28;20239;-69
2023/11/26 03:47:23;;;;;;;2.03;1.10;;;0.90;99.90;;;;;;2079936;28;20319;-69
2023/11/26 03:48:23;;;;;;;2.97;1.40;;;0.90;99.90;;;;;;2068802;28;20239;-69
2023/11/26 03:49:24;;;;;;;1.27;1.17;;;0.90;99.90;;;;;;2083016;28;20234;-69
2023/11/26 03:50:25;;;;;;;1.20;1.10;;;0.80;99.90;;;;;;2088007;28;20238;-69
2023/11/26 03:51:28;;;;;;;2.05;1.50;;;0.80;99.90;;;;;;2089520;28;20238;-70
2023/11/26 03:52:29;;;;;;;2.15;1.20;;;0.90;99.90;;;;;;2084975;28;20299;-69
2023/11/26 03:53:29;;;;;;;3.00;1.40;;;0.90;99.90;;;;;;2077242;28;20286;-69
2023/11/26 03:54:30;;;;;;;1.80;1.40;;;1.00;99.90;;;;;;2083881;28;20239;-69
2023/11/26 03:55:31;;;;;;;5.67;1.50;;;1.00;99.90;;;;;;2081839;28;20229;-69
2023/11/26 03:56:31;;;;;;;4.30;1.70;;;0.90;99.90;;;;;;2077064;28;20271;-69
2023/11/26 03:57:32;;;;;;;6.37;2.10;;;0.90;99.90;;;;;;2082338;28;20321;-69
2023/11/26 03:58:33;;;;;;;3.63;1.83;;;1.00;99.90;;;;;;2083077;28;20689;-69
2023/11/26 03:59:34;;;;;;;2.17;1.43;;;1.00;99.90;;;;;;2077738;28;20231;-69
2023/11/26 04:00:36;;;;;;;2.97;1.83;;;1.00;99.90;;;;;;2086342;28;20231;-69
2023/11/26 04:01:37;;;;;;;4.65;1.70;;;1.00;99.90;;;;;;2088173;28;20650;-70
2023/11/26 04:02:38;;;;;;;2.07;1.87;;;0.90;99.90;;;;;;2078158;28;20262;-69
2023/11/26 04:03:38;;;;;;;2.23;1.53;;;0.90;99.90;;;;;;2082510;28;20705;-69
2023/11/26 04:04:39;;;;;;;2.07;1.77;;;0.90;99.90;;;;;;2083092;28;20234;-69
2023/11/26 04:05:40;;;;;;;4.77;1.87;;;0.90;99.90;;;;;;2087258;28;20246;-69
2023/11/26 04:06:42;;;;;;;2.43;1.70;;;0.90;99.90;;;;;;2085471;28;20236;-69
2023/11/26 04:07:44;;;;;;;4.15;2.20;;;0.90;99.90;;;;;;2083413;28;20297;-69
2023/11/26 04:08:45;;;;;;;5.55;1.65;;;0.90;99.90;;;;;;2082422;28;20758;-69
2023/11/26 04:09:47;;;;;;;3.30;2.40;;;0.90;99.90;;;;;;2085830;28;20243;-69
2023/11/26 04:10:48;;;;;;;3.63;1.67;;;0.90;99.90;;;;;;2087946;28;20238;-69
2023/11/26 04:11:50;;;;;;;3.08;1.75;;;0.90;99.90;;;;;;2077442;28;20223;-69
2023/11/26 04:12:50;;;;;;;4.10;1.85;;;1.00;99.90;;;;;;2093135;28;20226;-69
2023/11/26 04:13:51;;;;;;;2.43;2.00;;;1.00;99.90;;;;;;2083104;28;20191;-69
2023/11/26 04:14:58;;;;;;;3.43;1.97;;;1.00;99.90;;;;;;2078548;28;20185;-69
2023/11/26 04:15:59;;;;;;;4.78;2.50;;;1.00;99.90;;;;;;2080028;28;20183;-69
2023/11/26 04:16:59;;;;;;;4.10;2.40;;;1.00;99.90;;;;;;2078585;28;20187;-69
2023/11/26 04:18:00;;;;;;;7.63;2.00;;;1.00;99.90;;;;;;2097838;28;20756;-68
2023/11/26 04:19:01;;;;;;;3.67;2.40;;;0.90;99.90;;;;;;2094070;28;20192;-69
2023/11/26 04:20:05;;;;;;;4.40;2.00;;;0.90;99.90;;;;;;2086440;28;20173;-69
2023/11/26 04:21:09;;;;;;;3.88;1.83;;;0.90;99.90;;;;;;2085894;28;20225;-69
2023/11/26 04:22:10;;;;;;;3.17;2.10;;;0.80;99.90;;;;;;2071938;28;20583;-69
2023/11/26 04:23:10;;;;;;;3.17;1.83;;;0.90;99.90;;;;;;2076673;28;20245;-69
2023/11/26 04:24:13;;;;;;;5.73;2.37;;;0.90;99.90;;;;;;2086092;28;20612;-69
2023/11/26 04:25:14;;;;;;;4.47;2.25;;;0.90;99.90;;;;;;2082076;28;20232;-69
2023/11/26 04:26:15;;;;;;;4.55;2.55;;;0.90;99.90;;;;;;2079432;28;20229;-69
2023/11/26 04:27:21;;;;;;;2.67;2.10;;;0.80;99.90;;;;;;2087689;28;20232;-69
2023/11/26 04:28:21;;;;;;;4.20;2.00;;;0.80;99.90;;;;;;2087449;28;20317;-68
2023/11/26 04:29:22;;;;;;;4.77;2.23;;;0.70;99.90;;;;;;2083579;28;20226;-69
2023/11/26 04:30:23;;;;;;;2.67;2.40;;;0.70;99.90;;;;;;2076562;28;20232;-69
2023/11/26 04:31:23;;;;;;;3.47;1.80;;;0.80;99.90;;;;;;2079930;28;20760;-69
2023/11/26 04:32:24;;;;;;;6.17;1.80;;;0.80;99.90;;;;;;2092963;28;20227;-69
2023/11/26 04:33:25;;;;;;;5.37;2.17;;;0.80;99.90;;;;;;2085334;28;20261;-69
2023/11/26 04:34:25;;;;;;;5.40;2.10;;;0.80;99.90;;;;;;2084251;28;20240;-69
2023/11/26 04:35:26;;;;;;;3.93;2.50;;;0.80;99.90;;;;;;2081235;28;20223;-69
2023/11/26 04:36:28;;;;;;;4.47;1.90;;;0.80;99.90;;;;;;2096611;28;20603;-69
2023/11/26 04:37:28;;;;;;;5.43;2.47;;;0.80;99.90;;;;;;2078272;28;20273;-69
2023/11/26 04:38:29;;;;;;;2.73;1.80;;;0.70;99.90;;;;;;2078973;28;20320;-69
2023/11/26 04:39:30;;;;;;;4.40;2.20;;;0.70;99.90;;;;;;2087061;28;20246;-69
2023/11/26 04:40:30;;;;;;;4.90;1.93;;;0.70;99.90;;;;;;2085221;28;20261;-69
2023/11/26 04:41:31;;;;;;;3.03;2.17;;;0.70;99.90;;;;;;2080578;28;20234;-69
2023/11/26 04:42:33;;;;;;;3.28;2.13;;;0.70;99.90;;;;;;2084451;28;20233;-69
2023/11/26 04:43:34;;;;;;;3.35;1.92;;;0.70;99.90;;;;;;2081037;28;20626;-69
2023/11/26 04:44:35;;;;;;;4.10;1.77;;;0.80;99.90;;;;;;2089197;28;20314;-69
2023/11/26 04:45:35;;;;;;;3.13;2.30;;;0.70;99.90;;;;;;2090059;28;20748;-69
2023/11/26 04:46:36;;;;;;;2.50;2.00;;;0.80;99.90;;;;;;2082232;28;20266;-70
2023/11/26 04:47:37;;;;;;;4.80;2.57;;;0.90;99.90;;;;;;2081011;28;20230;-69
2023/11/26 04:48:38;;;;;;;4.33;2.17;;;0.90;99.90;;;;;;2073768;28;20239;-70
2023/11/26 04:49:39;;;;;;;5.38;2.50;;;0.90;99.90;;;;;;2081565;28;20238;-69
2023/11/26 04:50:40;;;;;;;6.00;2.22;;;0.90;99.90;;;;;;2086896;28;20256;-69
2023/11/26 04:51:41;;;;;;;4.87;2.40;;;0.90;99.90;;;;;;2084553;28;20256;-69
2023/11/26 04:52:41;;;;;;;2.60;2.07;;;0.80;99.90;;;;;;2088591;28;20234;-69
2023/11/26 04:53:42;;;;;;;4.43;2.03;;;0.80;99.90;;;;;;2072601;28;20476;-69
2023/11/26 04:54:43;;;;;;;2.97;2.03;;;0.70;99.90;;;;;;2078132;28;20230;-69
2023/11/26 04:55:44;;;;;;;6.15;2.28;;;0.70;99.90;;;;;;2078191;28;20235;-69
2023/11/26 04:56:45;;;;;;;4.83;1.80;;;0.60;99.90;;;;;;2093400;28;20233;-70
2023/11/26 04:57:49;;;;;;;3.23;1.80;;;0.50;99.90;;;;;;2092345;28;20269;-69
2023/11/26 04:58:50;;;;;;;4.88;1.77;;;0.50;99.90;;;;;;2079870;28;20729;-69
2023/11/26 04:59:52;;;;;;;5.07;2.20;;;0.50;99.90;;;;;;2086444;28;20236;-70
2023/11/26 05:00:52;;;;;;;3.22;1.90;;;0.50;99.90;;;;;;2094290;28;20189;-70
2023/11/26 05:01:56;;;;;;;8.43;2.30;;;0.50;99.90;;;;;;2084369;28;20304;-69
2023/11/26 05:02:57;;;;;;;4.95;1.75;;;0.50;99.90;;;;;;2077516;28;20662;-70
2023/11/26 05:03:58;;;;;;;4.20;2.53;;;0.50;99.90;;;;;;2085018;28;20196;-69
2023/11/26 05:04:59;;;;;;;3.60;2.25;;;0.50;99.90;;;;;;2086238;28;20257;-69
2023/11/26 05:05:59;;;;;;;3.63;1.90;;;0.50;99.90;;;;;;2096163;28;20648;-69
2023/11/26 05:07:00;;;;;;;9.60;2.40;;;0.50;99.90;;;;;;2089427;28;20704;-69
2023/11/26 05:08:01;;;;;;;3.47;1.80;;;0.50;99.90;;;;;;2083886;28;20185;-69
2023/11/26 05:09:03;;;;;;;4.27;1.80;;;0.50;99.90;;;;;;2093777;28;20299;-69
2023/11/26 05:10:07;;;;;;;4.30;2.05;;;0.50;99.90;;;;;;2097424;28;20609;-69
2023/11/26 05:11:07;;;;;;;4.18;1.50;;;0.50;99.90;;;;;;2089854;28;20285;-69
2023/11/26 05:12:08;;;;;;;4.10;1.90;;;0.50;99.90;;;;;;2089766;28;20182;-69
2023/11/26 05:13:10;;;;;;;3.27;2.30;;;0.60;99.90;;;;;;2089670;28;20180;-69
2023/11/26 05:14:11;;;;;;;2.85;2.08;;;0.60;99.90;;;;;;2090902;28;20258;-69
2023/11/26 05:15:11;;;;;;;7.57;2.10;;;0.70;99.90;;;;;;2082772;28;20239;-69
2023/11/26 05:16:12;;;;;;;3.97;1.90;;;0.70;99.90;;;;;;2081132;28;20480;-69
2023/11/26 05:17:13;;;;;;;5.37;2.37;;;0.70;99.90;;;;;;2091358;28;20230;-70
2023/11/26 05:18:15;;;;;;;3.20;1.75;;;0.70;99.90;;;;;;2087476;28;20231;-69
2023/11/26 05:19:15;;;;;;;7.93;2.13;;;0.70;99.90;;;;;;2086018;28;20284;-70
2023/11/26 05:20:16;;;;;;;3.70;1.67;;;0.70;99.90;;;;;;2087230;28;20229;-69
2023/11/26 05:21:17;;;;;;;3.63;1.87;;;0.60;99.90;;;;;;2095333;28;20648;-69
2023/11/26 05:22:17;;;;;;;3.37;1.70;;;0.60;99.90;;;;;;2092201;28;20580;-69
2023/11/26 05:23:18;;;;;;;5.57;1.97;;;0.50;99.90;;;;;;2092582;28;20232;-69
2023/11/26 05:24:19;;;;;;;5.40;2.43;;;0.50;99.90;;;;;;2081921;28;20791;-69
2023/11/26 05:25:20;;;;;;;3.90;2.00;;;0.60;99.90;;;;;;2080054;28;20639;-69
2023/11/26 05:26:21;;;;;;;3.75;1.58;;;0.60;99.90;;;;;;2069360;28;20233;-69